EST,Max TemperatureF,Mean TemperatureF,Min TemperatureF,Max Dew PointF,MeanDew PointF,Min DewpointF,Max Humidity, Mean Humidity, Min Humidity, Max Sea Level PressureIn, Mean Sea Level PressureIn, Min Sea Level PressureIn, Max VisibilityMiles, Mean VisibilityMiles, Min VisibilityMiles, Max Wind SpeedMPH, Mean Wind SpeedMPH, Max Gust SpeedMPH,PrecipitationIn, CloudCover, Events, WindDirDegrees
2012-12-1,57,44,31,45,36,28,92,79,66,30.30,30.17,29.96,10,5,2,22,9,30,0.00,7,,144
2012-12-2,57,49,40,52,48,38,93,78,62,30.13,29.97,29.91,10,7,3,22,8,31,0.19,8,Rain,243
2012-12-3,63,48,32,57,47,30,100,89,78,30.14,30.05,29.87,10,3,0,23,9,35,0.03,7,Fog,162
2012-12-4,65,52,38,56,44,28,89,71,53,30.13,29.95,29.86,10,9,3,21,11,33,0.27,5,Rain,253
2012-12-5,38,30,21,27,20,17,74,63,52,30.42,30.36,30.17,10,10,10,18,8,23,0.00,2,,358
2012-12-6,38,30,22,29,25,18,88,74,59,30.36,30.16,29.97,10,10,10,16,8,22,0.00,2,,170
2012-12-7,44,41,38,40,37,30,93,82,70,29.98,29.94,29.89,10,4,2,13,4,16,0.11,8,Rain,141
2012-12-8,41,37,33,37,32,27,96,89,82,30.20,29.99,29.85,10,7,1,13,7,16,0.16,8,Rain-Snow,13
2012-12-9,34,33,31,31,28,25,92,82,72,30.22,29.99,29.67,10,7,2,21,9,28,0.28,7,Rain-Snow,79
2012-12-10,34,31,28,32,29,19,96,83,69,29.91,29.69,29.59,10,6,0,15,8,18,T,8,Fog-Snow,291
2012-12-11,34,29,24,25,20,16,75,66,56,30.14,30.02,29.90,10,10,9,16,7,22,T,6,Snow,234
2012-12-12,44,36,28,27,23,21,75,58,41,30.37,30.28,30.12,10,10,8,17,9,23,0.00,4,,212
2012-12-13,47,39,30,25,23,22,72,55,37,30.36,30.28,30.16,10,10,10,20,10,26,0.00,0,,193
2012-12-14,47,37,26,31,26,23,85,67,49,30.27,30.22,30.15,10,10,5,12,5,14,0.00,0,,191
2012-12-15,44,37,29,40,33,26,96,81,65,30.19,29.97,29.68,10,6,2,23,9,32,0.09,5,Rain,125
2012-12-16,50,47,43,47,44,37,93,88,82,29.68,29.62,29.58,10,7,2,15,8,23,0.12,8,Rain,212
2012-12-17,43,40,37,38,34,30,82,76,70,29.75,29.69,29.62,10,10,7,15,5,17,T,8,Rain,263
2012-12-18,42,36,30,33,29,25,92,73,54,29.78,29.74,29.66,10,7,1,15,6,18,0.06,5,Snow,280
2012-12-19,41,36,31,34,31,27,96,83,70,30.16,29.99,29.74,9,5,2,9,4,13,0.00,6,,263
2012-12-20,47,41,34,43,37,30,89,84,79,30.08,29.43,29.14,10,6,2,31,16,47,0.71,8,Rain-Snow,139
2012-12-21,38,33,28,31,26,21,89,78,66,29.90,29.41,29.17,10,4,1,30,16,37,0.15,8,Snow,294
2012-12-22,33,30,26,23,21,20,75,69,63,30.08,30.01,29.90,10,10,10,30,13,39,0.00,6,,281
2012-12-23,32,26,20,23,19,15,84,74,63,30.07,29.98,29.91,10,10,6,16,7,18,0.00,5,,290
2012-12-24,31,23,14,25,21,13,88,78,68,30.05,29.96,29.87,10,8,2,16,7,20,0.03,6,Snow,38
2012-12-25,32,29,25,23,20,18,88,73,58,30.36,30.23,30.00,10,10,10,16,7,20,0.00,7,,352
2012-12-26,30,28,26,25,22,19,92,81,69,30.31,30.01,29.89,10,5,0,26,16,32,0.33,8,Fog-Snow,32
2012-12-27,29,18,7,25,20,5,85,74,63,30.19,30.04,29.89,10,6,1,20,8,29,0.02,5,Snow,336
2012-12-28,27,14,1,20,12,-1,88,78,68,30.19,30.11,29.99,10,9,7,7,2,8,0.00,6,,95
2012-12-29,28,22,15,23,20,12,88,78,68,30.08,29.91,29.84,10,6,2,14,8,17,0.03,7,Snow,349
2012-12-30,29,22,14,23,19,14,88,79,69,30.30,30.22,30.05,10,8,3,17,9,23,T,7,Snow,239
2012-12-31,35,28,21,26,20,15,81,72,63,30.14,30.00,29.92,10,9,7,22,12,28,0.00,6,,250